Nearby METAR Reports

 

CYFC - Fredericton Airp, New Brunswick
Distance from station: E 14km
Updated: Mon, 21-Jun-2021 7:00am ADT
Clear
Clear
 Wind from calm
Wind: Calm
Temperature: 15°C
Dew Point: 14°C
Humidity: 94%
Barometer: 1008.1 hPa
Clouds: Clear
Visibility: 14 km
2021/06/21 10:00 CYFC 211000Z AUTO 00000KT 9SM CLR 15/14 A2977 RMK SLP082 DENSITY ALT 300FT
CYCX - Gagetown (can M, New Brunswick
Distance from station: E 22km
Updated: Mon, 21-Jun-2021 7:00am ADT
Partly cloudy
Partly cloudy
 Wind from calm
Wind: Calm
Temperature: 18°C
Dew Point: 14°C
Humidity: 78%
Barometer: 1008.1 hPa
Clouds: Partly cloudy
Visibility: 24 km
Cloud details: Partly cloudy 8534 m
2021/06/21 10:00 CYCX 211000Z 00000KT 15SM SCT280 18/14 A2977 RMK CI3 DA912FT SLP083
 
CYQM - Moncton Airport, New Brunswick
Distance from station: ENE 159km
Updated: Mon, 21-Jun-2021 7:00am ADT
Partly cloudy
Partly cloudy
 Wind from S
Wind: S 9 km/h
Temperature: 15°C
Dew Point: 14°C
Humidity: 94%
Barometer: 1008.5 hPa
Clouds: Partly cloudy
Visibility: 24 km
Cloud details: Partly cloudy 7620 m
2021/06/21 10:00 CYQM 211000Z 19005KT 15SM SCT250 15/14 A2978 RMK CI3 SLP085 DENSITY ALT 500FT
CYSJ - Saint John, New Brunswick
Distance from station: SE 88km
Updated: Mon, 21-Jun-2021 7:00am ADT
Mostly cloudy
Mostly cloudy
 Wind from S
Wind: S 9 km/h
Temperature: 13°C
Dew Point: 12°C
Humidity: 94%
Barometer: 1009.1 hPa
Clouds: Mostly cloudy
Visibility: 24 km
Cloud details: Mostly cloudy 7925 m
2021/06/21 10:00 CYSJ 211000Z 18005KT 15SM BKN260 13/12 A2980 RMK CI6 SLP094 DENSITY ALT 400FT
 
CWPE - Point Lepreau, New Brunswick
Distance from station: SSE 90km
Updated: Mon, 21-Jun-2021 7:00am ADT

 Wind from E
Wind: E 2 km/h
Temperature: 14°C
Dew Point: 12°C
Humidity: 88%
2021/06/21 10:00 CWPE 211000Z AUTO 09001KT 14/12 RMK AO1 SLP090 T01360116 51009
CYHZ - Halifax Intl Arp, Nova Scotia
Distance from station: ESE 273km
Updated: Mon, 21-Jun-2021 7:00am ADT
Few Clouds
Few Clouds
 Wind from SW
Wind: SW 9 km/h
Temperature: 17°C
Dew Point: 13°C
Humidity: 77%
Barometer: 1010.2 hPa
Clouds: Few Clouds
Visibility: 24 km
Cloud details: Few Clouds 6706 m
2021/06/21 10:00 CYHZ 211000Z 22005KT 15SM FEW220 17/13 A2983 RMK CI2 SLP104 DENSITY ALT 900FT
 
CYZX - Greenwood (can M, Nova Scotia
Distance from station: SE 169km
Updated: Mon, 21-Jun-2021 7:00am ADT
Few Clouds
Few Clouds
 Wind from calm
Wind: Calm
Temperature: 16°C
Dew Point: 13°C
Humidity: 83%
Barometer: 1009.8 hPa
Clouds: Few Clouds
Visibility: 24 km
Cloud details: Few Clouds 7620 m
2021/06/21 10:00 CYZX 211000Z 00000KT 15SM FEW250 16/13 A2982 RMK CI2 SLP099
CYQI - Yarmouth Airport, Nova Scotia
Distance from station: SSE 230km
Updated: Mon, 21-Jun-2021 7:00am ADT
Mostly cloudy
Mostly cloudy
 Wind from SSE
Wind: SSE 6 km/h
Temperature: 14°C
Dew Point: 14°C
Humidity: 100%
Barometer: 1010.5 hPa
Clouds: Mostly cloudy
Visibility: 19 km
Cloud details: Mostly cloudy 7620 m
2021/06/21 10:00 CYQI 211000Z 16003KT 110V180 12SM BKN250 14/14 A2984 RMK CI6 SLP105 DENSITY ALT 200FT
 
KHUL - Houlton, Maine, USA
Distance from station: WNW 90km
Updated: Mon, 21-Jun-2021 6:53am ADT
Partly cloudy
Partly cloudy
 Wind from calm
Wind: Calm
Temperature: 13°C
Dew Point: 12°C
Humidity: 94%
Barometer: 1007.8 hPa
Clouds: Partly cloudy
Visibility: 16 km
Cloud details: Partly cloudy 2438 m
2021/06/21 09:53 KHUL 210953Z AUTO 00000KT 10SM SCT080 13/12 A2976 RMK AO2 SLP076 T01330122
KPQI - Presque Isle, Maine, USA
Distance from station: NW 137km
Updated: Mon, 21-Jun-2021 6:56am ADT
Clear
Clear
 Wind from calm
Wind: Calm
Temperature: 12°C
Dew Point: 12°C
Humidity: 100%
Barometer: 1007.8 hPa
Clouds: Clear
Visibility: 16 km
2021/06/21 09:56 KPQI 210956Z AUTO 00000KT 10SM CLR 12/12 A2976 RMK AO2 SLP101 T01220117
 
KCAR - Caribou, Maine, USA
Distance from station: NW 151km
Updated: Mon, 21-Jun-2021 6:54am ADT
Clear
Clear
 Wind from calm
Wind: Calm
Temperature: 15°C
Dew Point: 13°C
Humidity: 88%
Barometer: 1007.1 hPa
Clouds: Clear
Visibility: 16 km
2021/06/21 09:54 KCAR 210954Z AUTO 00000KT 10SM CLR 15/13 A2974 RMK AO2 SLP073 T01500133
KMLT - Millinocket, Maine, USA
Distance from station: W 157km
Updated: Mon, 21-Jun-2021 6:53am ADT
Partly cloudy
Partly cloudy
 Wind from calm
Wind: Calm
Temperature: 15°C
Dew Point: 13°C
Humidity: 88%
Barometer: 1008.1 hPa
Clouds: Partly cloudy
Visibility: 16 km
Cloud details: Few Clouds 2134 m
Partly cloudy 2591 m
2021/06/21 09:53 KMLT 210953Z AUTO 00000KT 10SM FEW070 SCT085 15/13 A2977 RMK AO2 SLP084 T01500133 TSNO
 
KBGR - Bangor, Maine, USA
Distance from station: SW 203km
Updated: Mon, 21-Jun-2021 6:53am ADT
Partly cloudy
Partly cloudy
 Wind from calm
Wind: Calm
Temperature: 16°C
Dew Point: 15°C
Humidity: 94%
Barometer: 1007.8 hPa
Clouds: Partly cloudy
Visibility: 16 km
Cloud details: Partly cloudy 7620 m
2021/06/21 09:53 KBGR 210953Z 00000KT 10SM SCT250 16/15 A2976 RMK AO2 SLP074 T01610150
KBHB - Bar Harbor, Maine, USA
Distance from station: SW 204km
Updated: Mon, 21-Jun-2021 6:56am ADT
Clear
Clear
 Wind from calm
Wind: Calm
Temperature: 14°C
Dew Point: 14°C
Humidity: 100%
Barometer: 1008.5 hPa
Clouds: Clear
Visibility: 16 km
2021/06/21 09:56 KBHB 210956Z AUTO 00000KT 10SM CLR 14/14 A2978 RMK AO2 SLP085 T01440139
 
CWVU - Brier Island(Aut, Nova Scotia
Distance from station: S 177km
Updated: Mon, 21-Jun-2021 7:00am ADT

 Wind from SSE
Wind: SSE 20 km/h
Temperature: 14°C
Dew Point: 14°C
Humidity: 100%
2021/06/21 10:00 CWVU 211000Z AUTO 15011KT 14/14 RMK AO1 SLP095 T01420135 51005
CXNP - Nappan (auto), Nova Scotia
Distance from station: E 191km
Updated: Mon, 21-Jun-2021 7:00am ADT

 Wind from S
Wind: S 7 km/h
Temperature: 14°C
Dew Point: 12°C
Humidity: 88%
2021/06/21 10:00 CXNP 211000Z AUTO 19004KT 14/12 RMK AO1 SLP093 T01390122 53015
 
CXKT - Kentville (autob, Nova Scotia
Distance from station: ESE 193km
Updated: Mon, 21-Jun-2021 7:00am ADT

 Wind from NNE
Wind: NNE 2 km/h
Temperature: 16°C
Dew Point: 13°C
Humidity: 83%
2021/06/21 10:00 CXKT 211000Z AUTO 03001KT 16/13 RMK AO1 SLP096 T01610129 53014
CWKG - Kejimkujik (au8), Nova Scotia
Distance from station: SE 197km
Updated: Mon, 21-Jun-2021 7:00am ADT

 Wind from SSW
Wind: SSW 2 km/h
Temperature: 15°C
Dew Point: 14°C
Humidity: 94%
2021/06/21 10:00 CWKG 211000Z AUTO 20001KT 15/14 RMK AO1 SLP102 T01460140 51010
 
KFVE - Frenchville, Maine, USA
Distance from station: NW 201km
Updated: Mon, 21-Jun-2021 6:53am ADT
Clear
Clear
 Wind from S
Wind: S 6 km/h
Temperature: 15°C
Dew Point: 13°C
Humidity: 88%
Barometer: 1007.1 hPa
Clouds: Clear
Visibility: 16 km
2021/06/21 09:53 KFVE 210953Z AUTO 19003KT 10SM CLR 15/13 A2974 RMK AO2 SLP066 T01500133
CZBF - Bathurst Arpt(Aw, New Brunswick
Distance from station: NNE 208km
Updated: Mon, 21-Jun-2021 7:00am ADT
Clear
Clear
 Wind from calm
Wind: Calm
Temperature: 13°C
Dew Point: 12°C
Humidity: 94%
Barometer: 1007.5 hPa
Clouds: Clear
Visibility: 14 km
2021/06/21 10:00 CZBF 211000Z AUTO 00000KT 9SM CLR 13/12 A2975 RMK SLP078 DENSITY ALT 200FT
 
CERM - Edmunston, New Brunswick
Distance from station: NW 213km
Updated: Mon, 21-Jun-2021 7:00am ADT

 Wind from ENE
Wind: ENE 2 km/h
Temperature: 12°C
Dew Point: 12°C
Humidity: 100%
2021/06/21 10:00 CERM 211000Z AUTO 07001KT 12/12 RMK AO1 SLP069 T01160115 53001
KGNR - Greenville, Maine, USA
Distance from station: W 226km
Updated: Mon, 21-Jun-2021 6:56am ADT

 Wind from ESE
Wind: ESE 11 km/h
Temperature: 17°C
Dew Point: 11°C
Humidity: 68%
Barometer: 1007.5 hPa
2021/06/21 09:56 KGNR 210956Z AUTO 12006KT 17/11 A2975 RMK AO1 SLP069 T01720106
 
CWSD - Summerside (auto, PEI
Distance from station: ENE 228km
Updated: Mon, 21-Jun-2021 7:00am ADT

 Wind from SW
Wind: SW 9 km/h
Temperature: 17°C
Dew Point: 15°C
Humidity: 88%
2021/06/21 10:00 CWSD 211000Z AUTO 22005KT 17/15 RMK AO1 SLP083 T01690151 51015
K40B - Clayton Lake, Maine, USA
Distance from station: WNW 233km
Updated: Mon, 21-Jun-2021 7:16am ADT

 Wind from varies
Wind: varies 6 km/h
Temperature: 11°C
Dew Point: 10°C
Humidity: 94%
Barometer: 1007.1 hPa
2021/06/21 10:16 K40B 211016Z AUTO VRB03KT 11/10 A2974 RMK AO1 SLP071 T01080105 58002
 
CZCR - Charlo Airport, New Brunswick
Distance from station: N 236km
Updated: Mon, 21-Jun-2021 7:00am ADT

 Wind from WSW
Wind: WSW 2 km/h
Temperature: 12°C
Dew Point: 12°C
Humidity: 100%
2021/06/21 10:00 CZCR 211000Z AUTO 24001KT 12/12 RMK AO1 SLP069 T01150124 52007
CWNE - North Point (aut, Ontario
Distance from station: NE 246km
Updated: Mon, 21-Jun-2021 7:00am ADT

 
2021/06/21 10:00 CWNE 211000Z AUTO RMK AO1
 
CXLB - Lunenburg, Nova Scotia
Distance from station: SE 250km
Updated: Mon, 21-Jun-2021 7:00am ADT

 Wind from SE
Wind: SE 4 km/h
Temperature: 15°C
Dew Point: 13°C
Humidity: 88%
2021/06/21 10:00 CXLB 211000Z AUTO 14002KT 15/13 RMK AO1 SLP096 T01530129 52013
CZDB - Debert, Nova Scotia
Distance from station: E 255km
Updated: Mon, 21-Jun-2021 7:00am ADT

 Wind from S
Wind: S 2 km/h
Temperature: 13°C
Dew Point: 12°C
Humidity: 94%
2021/06/21 10:00 CZDB 211000Z AUTO 19001KT 13/12 RMK AO1 SLP105 T01330115 53018
 
CWOC - New Carlisle1, Quebec
Distance from station: NNE 262km
Updated: Mon, 21-Jun-2021 7:00am ADT

 Wind from SE
Wind: SE 2 km/h
Temperature: 13°C
Dew Point: 12°C
Humidity: 94%
2021/06/21 10:00 CWOC 211000Z AUTO 14001KT 13/12 RMK AO1 SLP067 T01270123
CWWE - Western Head (ma, Nova Scotia
Distance from station: SE 264km
Updated: Mon, 21-Jun-2021 7:00am ADT

 Wind from SW
Wind: SW 9 km/h
Temperature: 11°C
2021/06/21 10:00 CWWE 211000Z AUTO 22005KT 11/ RMK AO1 SLP105 T0106 51012
 
KRKD - Rockland/Knox, Maine, USA
Distance from station: SW 274km
Updated: Mon, 21-Jun-2021 6:56am ADT
Clear
Clear
 Wind from calm
Wind: Calm
Temperature: 14°C
Dew Point: 13°C
Humidity: 94%
Barometer: 1007.8 hPa
Clouds: Clear
Visibility: 16 km
2021/06/21 09:56 KRKD 210956Z AUTO 00000KT 10SM CLR 14/13 A2976 RMK AO2 SLP079 T01390133
CAHR - Harrington Cda, Ontario
Distance from station: ENE 277km
Updated: Mon, 21-Jun-2021 8:00pm ADT

 Wind from calm
Wind: Calm
Temperature: 21°C
Dew Point: 15°C
Humidity: 69%
2021/06/21 23:00 CAHR 212300Z AUTO 00000KT 21/15 RMK AO1 SLP045 T02060150 53017
 
KWVL - Waterville, Maine, USA
Distance from station: WSW 277km
Updated: Mon, 21-Jun-2021 6:56am ADT
Mist, Clear
Mist, Clear
 Wind from calm
Wind: Calm
Temperature: 14°C
Dew Point: 14°C
Humidity: 100%
Barometer: 1006.8 hPa
Summary: Mist
Clouds: Clear
Visibility: 8 km
2021/06/21 09:56 KWVL 210956Z AUTO 00000KT 5SM BR CLR 14/14 A2973 RMK AO2 SLP092 T01440144 PNO $
CYYG - Charlottetown Ar, PEI
Distance from station: E 280km
Updated: Mon, 21-Jun-2021 7:00am ADT
Partly cloudy
Partly cloudy
 Wind from WSW
Wind: WSW 15 km/h
Temperature: 17°C
Dew Point: 14°C
Humidity: 83%
Barometer: 1008.1 hPa
Clouds: Partly cloudy
Visibility: 24 km
Cloud details: Partly cloudy 8534 m
2021/06/21 10:00 CYYG 211000Z 24008KT 15SM SCT280 17/14 A2977 RMK CI3 SLP084 DENSITY ALT 600FT
 
CXMI - Mcnabs Island, Nova Scotia
Distance from station: ESE 284km
Updated: Mon, 21-Jun-2021 7:00am ADT

 Wind from N
Wind: N 2 km/h
Temperature: 19°C
Dew Point: 14°C
Humidity: 73%
2021/06/21 10:00 CXMI 211000Z AUTO 36001KT 19/14 RMK AO1 SLP098 T01860138 53017
KAUG - Augusta, Maine, USA
Distance from station: SW 298km
Updated: Mon, 21-Jun-2021 6:53am ADT
Clear
Clear
 Wind from calm
Wind: Calm
Temperature: 16°C
Dew Point: 15°C
Humidity: 94%
Barometer: 1007.8 hPa
Clouds: Clear
Visibility: 13 km
2021/06/21 09:53 KAUG 210953Z AUTO 00000KT 8SM CLR 16/15 A2976 RMK AO2 SLP075 T01560150
 
CWST - La Pocatiere, Quebec
Distance from station: NW 303km
Updated: Mon, 21-Jun-2021 7:00am ADT

 Wind from SE
Wind: SE 11 km/h
Temperature: 16°C
Dew Point: 13°C
Humidity: 83%
2021/06/21 10:00 CWST 211000Z AUTO 13006KT 16/13 RMK AO1 SLP047 T01640127 58004
CWNH - Riviere Du Loup, Quebec
Distance from station: NW 304km
Updated: Mon, 21-Jun-2021 7:00am ADT

 Wind from S
Wind: S 7 km/h
Temperature: 17°C
Dew Point: 14°C
Humidity: 83%
2021/06/21 10:00 CWNH 211000Z AUTO 18004KT 17/14 RMK AO1 SLP053 T01720137 58002
 
CWBK - Caribou Point(Ma, Nova Scotia
Distance from station: E 312km
Updated: Mon, 21-Jun-2021 7:00am ADT

 Wind from SW
Wind: SW 13 km/h
Temperature: 17°C
Dew Point: 14°C
Humidity: 83%
2021/06/21 10:00 CWBK 211000Z AUTO 22007KT 17/14 RMK AO1 SLP091 T01680137 53016
CWHV - Beauceville, Quebec
Distance from station: W 317km
Updated: Mon, 21-Jun-2021 7:00am ADT

 Wind from S
Wind: S 4 km/h
Temperature: 13°C
Dew Point: 11°C
Humidity: 88%
2021/06/21 10:00 CWHV 211000Z AUTO 17002KT 13/11 RMK AO1 SLP058 T01310112 58011
 
KIWI - Wiscasset, Maine, USA
Distance from station: SW 318km
Updated: Mon, 21-Jun-2021 6:53am ADT
Clear
Clear
 Wind from calm
Wind: Calm
Temperature: 14°C
Dew Point: 14°C
Humidity: 100%
Barometer: 1008.1 hPa
Clouds: Clear
Visibility: 16 km
2021/06/21 09:53 KIWI 210953Z AUTO 00000KT 10SM CLR 14/14 A2977 RMK AO2 SLP079 T01440144